sensor_id;sensor_type;location;lat;lon;timestamp;temperature;humidity
14749;DHT22;7466;53.574;9.976;2023-11-21T00:01:47;8.60;99.90
14749;DHT22;7466;53.574;9.976;2023-11-21T00:04:14;8.50;99.90
14749;DHT22;7466;53.574;9.976;2023-11-21T00:06:42;8.40;99.90
14749;DHT22;7466;53.574;9.976;2023-11-21T00:09:12;8.40;99.90
14749;DHT22;7466;53.574;9.976;2023-11-21T00:11:40;8.30;99.90
14749;DHT22;7466;53.574;9.976;2023-11-21T00:14:07;8.30;99.90
14749;DHT22;7466;53.574;9.976;2023-11-21T00:16:34;8.20;99.90
14749;DHT22;7466;53.574;9.976;2023-11-21T00:19:01;8.20;99.90
14749;DHT22;7466;53.574;9.976;2023-11-21T00:21:28;8.20;99.90
14749;DHT22;7466;53.574;9.976;2023-11-21T00:23:56;8.10;99.90
14749;DHT22;7466;53.574;9.976;2023-11-21T00:26:23;8.10;99.90
14749;DHT22;7466;53.574;9.976;2023-11-21T00:28:50;8.10;99.90
14749;DHT22;7466;53.574;9.976;2023-11-21T00:31:17;8.00;99.90
14749;DHT22;7466;53.574;9.976;2023-11-21T00:33:44;8.00;99.90
14749;DHT22;7466;53.574;9.976;2023-11-21T00:36:10;7.90;99.90
14749;DHT22;7466;53.574;9.976;2023-11-21T00:38:37;7.90;99.90
14749;DHT22;7466;53.574;9.976;2023-11-21T00:41:06;7.90;99.90
14749;DHT22;7466;53.574;9.976;2023-11-21T00:43:33;7.90;99.90
14749;DHT22;7466;53.574;9.976;2023-11-21T00:46:03;7.80;99.90
14749;DHT22;7466;53.574;9.976;2023-11-21T00:48:30;7.80;99.90
14749;DHT22;7466;53.574;9.976;2023-11-21T00:50:56;7.80;99.90
14749;DHT22;7466;53.574;9.976;2023-11-21T00:53:23;7.70;99.90
14749;DHT22;7466;53.574;9.976;2023-11-21T00:55:50;7.70;99.90
14749;DHT22;7466;53.574;9.976;2023-11-21T00:58:19;7.50;99.90
14749;DHT22;7466;53.574;9.976;2023-11-21T01:00:45;7.50;99.90
14749;DHT22;7466;53.574;9.976;2023-11-21T01:05:44;7.50;99.90
14749;DHT22;7466;53.574;9.976;2023-11-21T01:08:11;7.50;99.90
14749;DHT22;7466;53.574;9.976;2023-11-21T01:10:38;7.40;99.90
14749;DHT22;7466;53.574;9.976;2023-11-21T01:13:05;7.40;99.90
14749;DHT22;7466;53.574;9.976;2023-11-21T01:15:34;7.40;99.90
14749;DHT22;7466;53.574;9.976;2023-11-21T01:18:00;7.40;99.90
14749;DHT22;7466;53.574;9.976;2023-11-21T01:20:27;7.40;99.90
14749;DHT22;7466;53.574;9.976;2023-11-21T01:22:54;7.30;99.90
14749;DHT22;7466;53.574;9.976;2023-11-21T01:25:21;7.30;99.90
14749;DHT22;7466;53.574;9.976;2023-11-21T01:27:47;7.30;99.90
14749;DHT22;7466;53.574;9.976;2023-11-21T01:30:14;7.30;99.90
14749;DHT22;7466;53.574;9.976;2023-11-21T01:32:43;7.20;99.90
14749;DHT22;7466;53.574;9.976;2023-11-21T01:35:10;7.20;99.90
14749;DHT22;7466;53.574;9.976;2023-11-21T01:37:37;7.20;99.90
14749;DHT22;7466;53.574;9.976;2023-11-21T01:40:04;7.20;99.90
14749;DHT22;7466;53.574;9.976;2023-11-21T01:42:35;7.10;99.90
14749;DHT22;7466;53.574;9.976;2023-11-21T01:45:02;7.00;99.90
14749;DHT22;7466;53.574;9.976;2023-11-21T01:47:30;7.00;99.90
14749;DHT22;7466;53.574;9.976;2023-11-21T01:49:59;7.00;99.90
14749;DHT22;7466;53.574;9.976;2023-11-21T01:52:26;6.90;99.90
14749;DHT22;7466;53.574;9.976;2023-11-21T01:54:53;6.90;99.90
14749;DHT22;7466;53.574;9.976;2023-11-21T01:57:20;7.00;99.90
14749;DHT22;7466;53.574;9.976;2023-11-21T01:59:48;7.00;99.90
14749;DHT22;7466;53.574;9.976;2023-11-21T02:02:15;7.00;99.90
14749;DHT22;7466;53.574;9.976;2023-11-21T02:04:43;6.90;99.90
14749;DHT22;7466;53.574;9.976;2023-11-21T02:07:11;6.90;99.90
14749;DHT22;7466;53.574;9.976;2023-11-21T02:09:38;6.90;99.90
14749;DHT22;7466;53.574;9.976;2023-11-21T02:12:08;6.90;99.90
14749;DHT22;7466;53.574;9.976;2023-11-21T02:14:36;6.90;99.90
14749;DHT22;7466;53.574;9.976;2023-11-21T02:17:03;6.90;99.90
14749;DHT22;7466;53.574;9.976;2023-11-21T02:19:30;6.90;99.90
14749;DHT22;7466;53.574;9.976;2023-11-21T02:21:59;6.90;99.90
14749;DHT22;7466;53.574;9.976;2023-11-21T02:24:31;6.80;99.90
14749;DHT22;7466;53.574;9.976;2023-11-21T02:26:58;6.80;99.90
14749;DHT22;7466;53.574;9.976;2023-11-21T02:29:25;6.80;99.90
14749;DHT22;7466;53.574;9.976;2023-11-21T02:31:54;6.80;99.90
14749;DHT22;7466;53.574;9.976;2023-11-21T02:34:21;6.80;99.90
14749;DHT22;7466;53.574;9.976;2023-11-21T02:36:48;6.80;99.90
14749;DHT22;7466;53.574;9.976;2023-11-21T02:39:16;6.80;99.90
14749;DHT22;7466;53.574;9.976;2023-11-21T02:41:49;6.80;99.90
14749;DHT22;7466;53.574;9.976;2023-11-21T02:44:15;6.80;99.90
14749;DHT22;7466;53.574;9.976;2023-11-21T02:46:42;6.80;99.90
14749;DHT22;7466;53.574;9.976;2023-11-21T02:49:09;6.80;99.90
14749;DHT22;7466;53.574;9.976;2023-11-21T02:51:36;6.80;99.90
14749;DHT22;7466;53.574;9.976;2023-11-21T02:54:03;6.70;99.90
14749;DHT22;7466;53.574;9.976;2023-11-21T02:56:32;6.80;99.90
14749;DHT22;7466;53.574;9.976;2023-11-21T02:59:00;6.70;99.90
14749;DHT22;7466;53.574;9.976;2023-11-21T03:01:28;6.70;99.90
14749;DHT22;7466;53.574;9.976;2023-11-21T03:03:54;6.70;99.90
14749;DHT22;7466;53.574;9.976;2023-11-21T03:06:22;6.70;99.90
14749;DHT22;7466;53.574;9.976;2023-11-21T03:08:49;6.70;99.90
14749;DHT22;7466;53.574;9.976;2023-11-21T03:11:16;6.70;99.90
14749;DHT22;7466;53.574;9.976;2023-11-21T03:13:43;6.70;99.90
14749;DHT22;7466;53.574;9.976;2023-11-21T03:16:11;6.70;99.90
14749;DHT22;7466;53.574;9.976;2023-11-21T03:18:38;6.60;99.90
14749;DHT22;7466;53.574;9.976;2023-11-21T03:21:05;6.60;99.90
14749;DHT22;7466;53.574;9.976;2023-11-21T03:23:34;6.60;99.90
14749;DHT22;7466;53.574;9.976;2023-11-21T03:26:00;6.60;99.90
14749;DHT22;7466;53.574;9.976;2023-11-21T03:28:27;6.60;99.90
14749;DHT22;7466;53.574;9.976;2023-11-21T03:30:55;6.60;99.90
14749;DHT22;7466;53.574;9.976;2023-11-21T03:33:24;6.60;99.90
14749;DHT22;7466;53.574;9.976;2023-11-21T03:35:50;6.60;99.90
14749;DHT22;7466;53.574;9.976;2023-11-21T03:38:18;6.60;99.90
14749;DHT22;7466;53.574;9.976;2023-11-21T03:40:45;6.60;99.90
14749;DHT22;7466;53.574;9.976;2023-11-21T03:43:13;6.60;99.90
14749;DHT22;7466;53.574;9.976;2023-11-21T03:45:40;6.60;99.90
14749;DHT22;7466;53.574;9.976;2023-11-21T03:48:07;6.60;99.90
14749;DHT22;7466;53.574;9.976;2023-11-21T03:50:35;6.60;99.90
14749;DHT22;7466;53.574;9.976;2023-11-21T03:53:02;6.50;99.90
14749;DHT22;7466;53.574;9.976;2023-11-21T03:55:29;6.60;99.90
14749;DHT22;7466;53.574;9.976;2023-11-21T03:57:56;6.60;99.90
14749;DHT22;7466;53.574;9.976;2023-11-21T04:00:24;6.60;99.90
14749;DHT22;7466;53.574;9.976;2023-11-21T04:02:52;6.50;99.90
14749;DHT22;7466;53.574;9.976;2023-11-21T04:05:20;6.50;99.90
14749;DHT22;7466;53.574;9.976;2023-11-21T04:07:48;6.50;99.90
14749;DHT22;7466;53.574;9.976;2023-11-21T04:10:15;6.50;99.90
14749;DHT22;7466;53.574;9.976;2023-11-21T04:12:42;6.50;99.90
14749;DHT22;7466;53.574;9.976;2023-11-21T04:15:09;6.50;99.90
14749;DHT22;7466;53.574;9.976;2023-11-21T04:17:36;6.50;99.90
14749;DHT22;7466;53.574;9.976;2023-11-21T04:20:03;6.50;99.90
14749;DHT22;7466;53.574;9.976;2023-11-21T04:22:33;6.50;99.90
14749;DHT22;7466;53.574;9.976;2023-11-21T04:25:02;6.50;99.90
14749;DHT22;7466;53.574;9.976;2023-11-21T04:27:28;6.50;99.90
14749;DHT22;7466;53.574;9.976;2023-11-21T04:29:55;6.50;99.90
14749;DHT22;7466;53.574;9.976;2023-11-21T04:32:22;6.40;99.90
14749;DHT22;7466;53.574;9.976;2023-11-21T04:34:48;6.40;99.90
14749;DHT22;7466;53.574;9.976;2023-11-21T04:37:15;6.50;99.90
14749;DHT22;7466;53.574;9.976;2023-11-21T04:39:42;6.40;99.90
14749;DHT22;7466;53.574;9.976;2023-11-21T04:42:10;6.50;99.90
14749;DHT22;7466;53.574;9.976;2023-11-21T04:44:38;6.50;99.90
14749;DHT22;7466;53.574;9.976;2023-11-21T04:47:06;6.60;99.90
14749;DHT22;7466;53.574;9.976;2023-11-21T04:49:33;6.50;99.90
14749;DHT22;7466;53.574;9.976;2023-11-21T04:52:00;6.50;99.90
14749;DHT22;7466;53.574;9.976;2023-11-21T04:54:27;6.40;99.90
14749;DHT22;7466;53.574;9.976;2023-11-21T04:56:53;6.40;99.90
14749;DHT22;7466;53.574;9.976;2023-11-21T04:59:21;6.50;99.90
14749;DHT22;7466;53.574;9.976;2023-11-21T05:01:50;6.50;99.90
14749;DHT22;7466;53.574;9.976;2023-11-21T05:04:16;6.50;99.90
14749;DHT22;7466;53.574;9.976;2023-11-21T05:06:43;6.50;99.90
14749;DHT22;7466;53.574;9.976;2023-11-21T05:09:10;6.50;99.90
14749;DHT22;7466;53.574;9.976;2023-11-21T05:11:37;6.50;99.90
14749;DHT22;7466;53.574;9.976;2023-11-21T05:14:04;6.60;99.90
14749;DHT22;7466;53.574;9.976;2023-11-21T05:16:34;6.50;99.90
14749;DHT22;7466;53.574;9.976;2023-11-21T05:19:00;6.50;99.90
14749;DHT22;7466;53.574;9.976;2023-11-21T05:21:27;6.50;99.90
14749;DHT22;7466;53.574;9.976;2023-11-21T05:23:55;6.50;99.90
14749;DHT22;7466;53.574;9.976;2023-11-21T05:26:21;6.40;99.90
14749;DHT22;7466;53.574;9.976;2023-11-21T05:28:48;6.40;99.90
14749;DHT22;7466;53.574;9.976;2023-11-21T05:31:15;6.40;99.90
14749;DHT22;7466;53.574;9.976;2023-11-21T05:33:43;6.50;99.90
14749;DHT22;7466;53.574;9.976;2023-11-21T05:36:10;6.50;99.90
14749;DHT22;7466;53.574;9.976;2023-11-21T05:38:37;6.50;99.90
14749;DHT22;7466;53.574;9.976;2023-11-21T05:41:04;6.50;99.90
14749;DHT22;7466;53.574;9.976;2023-11-21T05:43:31;6.40;99.90
14749;DHT22;7466;53.574;9.976;2023-11-21T05:45:58;6.40;99.90
14749;DHT22;7466;53.574;9.976;2023-11-21T05:48:24;6.40;99.90
14749;DHT22;7466;53.574;9.976;2023-11-21T05:50:53;6.40;99.90
14749;DHT22;7466;53.574;9.976;2023-11-21T05:53:20;6.40;99.90
14749;DHT22;7466;53.574;9.976;2023-11-21T05:55:47;6.40;99.90
14749;DHT22;7466;53.574;9.976;2023-11-21T05:58:14;6.40;99.90
14749;DHT22;7466;53.574;9.976;2023-11-21T06:00:40;6.40;99.90
14749;DHT22;7466;53.574;9.976;2023-11-21T06:03:07;6.40;99.90
14749;DHT22;7466;53.574;9.976;2023-11-21T06:05:34;6.40;99.90
14749;DHT22;7466;53.574;9.976;2023-11-21T06:08:02;6.40;99.90
14749;DHT22;7466;53.574;9.976;2023-11-21T06:10:29;6.40;99.90
14749;DHT22;7466;53.574;9.976;2023-11-21T06:12:56;6.40;99.90
14749;DHT22;7466;53.574;9.976;2023-11-21T06:15:23;6.40;99.90
14749;DHT22;7466;53.574;9.976;2023-11-21T06:17:50;6.30;99.90
14749;DHT22;7466;53.574;9.976;2023-11-21T06:20:18;6.30;99.90
14749;DHT22;7466;53.574;9.976;2023-11-21T06:22:47;6.40;99.90
14749;DHT22;7466;53.574;9.976;2023-11-21T06:25:16;6.40;99.90
14749;DHT22;7466;53.574;9.976;2023-11-21T06:27:44;6.40;99.90
14749;DHT22;7466;53.574;9.976;2023-11-21T06:30:12;6.40;99.90
14749;DHT22;7466;53.574;9.976;2023-11-21T06:32:41;6.40;99.90
14749;DHT22;7466;53.574;9.976;2023-11-21T06:35:11;6.40;99.90
14749;DHT22;7466;53.574;9.976;2023-11-21T06:37:38;6.40;99.90
14749;DHT22;7466;53.574;9.976;2023-11-21T06:40:06;6.50;99.90
14749;DHT22;7466;53.574;9.976;2023-11-21T06:42:36;6.40;99.90
14749;DHT22;7466;53.574;9.976;2023-11-21T06:45:04;6.50;99.90
14749;DHT22;7466;53.574;9.976;2023-11-21T06:47:31;6.50;99.90
14749;DHT22;7466;53.574;9.976;2023-11-21T06:49:58;6.50;99.90
14749;DHT22;7466;53.574;9.976;2023-11-21T06:52:26;6.50;99.90
14749;DHT22;7466;53.574;9.976;2023-11-21T06:54:52;6.50;99.90
14749;DHT22;7466;53.574;9.976;2023-11-21T06:57:20;6.50;99.90
14749;DHT22;7466;53.574;9.976;2023-11-21T06:59:48;6.50;99.90
14749;DHT22;7466;53.574;9.976;2023-11-21T07:02:15;6.50;99.90
14749;DHT22;7466;53.574;9.976;2023-11-21T07:04:43;6.60;99.90
14749;DHT22;7466;53.574;9.976;2023-11-21T07:07:10;6.50;99.90
14749;DHT22;7466;53.574;9.976;2023-11-21T07:09:37;6.50;99.90
14749;DHT22;7466;53.574;9.976;2023-11-21T07:12:04;6.50;99.90
14749;DHT22;7466;53.574;9.976;2023-11-21T07:14:33;6.50;99.90
14749;DHT22;7466;53.574;9.976;2023-11-21T07:17:01;6.50;99.90
14749;DHT22;7466;53.574;9.976;2023-11-21T07:19:27;6.50;99.90
14749;DHT22;7466;53.574;9.976;2023-11-21T07:21:54;6.50;99.90
14749;DHT22;7466;53.574;9.976;2023-11-21T07:24:21;6.50;99.90
14749;DHT22;7466;53.574;9.976;2023-11-21T07:26:49;6.50;99.90
14749;DHT22;7466;53.574;9.976;2023-11-21T07:29:15;6.50;99.90
14749;DHT22;7466;53.574;9.976;2023-11-21T07:31:42;6.60;99.90
14749;DHT22;7466;53.574;9.976;2023-11-21T07:34:10;6.60;99.90
14749;DHT22;7466;53.574;9.976;2023-11-21T07:36:37;6.60;99.90
14749;DHT22;7466;53.574;9.976;2023-11-21T07:39:04;6.70;99.90
14749;DHT22;7466;53.574;9.976;2023-11-21T07:41:32;6.70;99.90
14749;DHT22;7466;53.574;9.976;2023-11-21T07:43:58;6.70;99.90
14749;DHT22;7466;53.574;9.976;2023-11-21T07:46:26;6.70;99.90
14749;DHT22;7466;53.574;9.976;2023-11-21T07:48:53;6.70;99.90
14749;DHT22;7466;53.574;9.976;2023-11-21T07:51:21;6.70;99.90
14749;DHT22;7466;53.574;9.976;2023-11-21T07:53:48;6.70;99.90
14749;DHT22;7466;53.574;9.976;2023-11-21T07:56:15;6.70;99.90
14749;DHT22;7466;53.574;9.976;2023-11-21T07:58:42;6.60;99.90
14749;DHT22;7466;53.574;9.976;2023-11-21T08:01:09;6.60;99.90
14749;DHT22;7466;53.574;9.976;2023-11-21T08:03:37;6.70;99.90
14749;DHT22;7466;53.574;9.976;2023-11-21T08:06:04;6.70;99.90
14749;DHT22;7466;53.574;9.976;2023-11-21T08:08:32;6.60;99.90
14749;DHT22;7466;53.574;9.976;2023-11-21T08:10:59;6.70;99.90
14749;DHT22;7466;53.574;9.976;2023-11-21T08:13:28;6.70;99.90
14749;DHT22;7466;53.574;9.976;2023-11-21T08:15:56;6.60;99.90
14749;DHT22;7466;53.574;9.976;2023-11-21T08:18:27;6.70;99.90
14749;DHT22;7466;53.574;9.976;2023-11-21T08:20:54;6.70;99.90
14749;DHT22;7466;53.574;9.976;2023-11-21T08:23:21;6.70;99.90
14749;DHT22;7466;53.574;9.976;2023-11-21T08:25:52;6.70;99.90
14749;DHT22;7466;53.574;9.976;2023-11-21T08:28:19;6.80;99.90
14749;DHT22;7466;53.574;9.976;2023-11-21T08:30:47;6.80;99.90
14749;DHT22;7466;53.574;9.976;2023-11-21T08:33:14;6.90;99.90
14749;DHT22;7466;53.574;9.976;2023-11-21T08:35:41;6.80;99.90
14749;DHT22;7466;53.574;9.976;2023-11-21T08:38:07;6.80;99.90
14749;DHT22;7466;53.574;9.976;2023-11-21T08:40:35;6.90;99.90
14749;DHT22;7466;53.574;9.976;2023-11-21T08:43:03;6.90;99.90
14749;DHT22;7466;53.574;9.976;2023-11-21T08:45:31;6.90;99.90
14749;DHT22;7466;53.574;9.976;2023-11-21T08:47:59;6.90;99.90
14749;DHT22;7466;53.574;9.976;2023-11-21T08:50:26;6.90;99.90
14749;DHT22;7466;53.574;9.976;2023-11-21T08:52:53;6.90;99.90
14749;DHT22;7466;53.574;9.976;2023-11-21T08:55:21;7.00;99.90
14749;DHT22;7466;53.574;9.976;2023-11-21T08:57:48;6.90;99.90
14749;DHT22;7466;53.574;9.976;2023-11-21T09:00:16;6.90;99.90
14749;DHT22;7466;53.574;9.976;2023-11-21T09:02:45;6.90;99.90
14749;DHT22;7466;53.574;9.976;2023-11-21T09:05:13;6.90;99.90
14749;DHT22;7466;53.574;9.976;2023-11-21T09:07:41;6.90;99.90
14749;DHT22;7466;53.574;9.976;2023-11-21T09:10:08;6.90;99.90
14749;DHT22;7466;53.574;9.976;2023-11-21T09:12:36;6.90;99.90
14749;DHT22;7466;53.574;9.976;2023-11-21T09:15:04;6.90;99.90
14749;DHT22;7466;53.574;9.976;2023-11-21T09:17:32;7.00;99.90
14749;DHT22;7466;53.574;9.976;2023-11-21T09:19:59;7.00;99.90
14749;DHT22;7466;53.574;9.976;2023-11-21T09:22:26;6.90;99.90
14749;DHT22;7466;53.574;9.976;2023-11-21T09:24:55;7.00;99.90
14749;DHT22;7466;53.574;9.976;2023-11-21T09:27:22;6.90;99.90
14749;DHT22;7466;53.574;9.976;2023-11-21T09:29:48;6.90;99.90
14749;DHT22;7466;53.574;9.976;2023-11-21T09:32:16;7.00;99.90
14749;DHT22;7466;53.574;9.976;2023-11-21T09:34:45;6.90;99.90
14749;DHT22;7466;53.574;9.976;2023-11-21T09:37:12;7.00;99.90
14749;DHT22;7466;53.574;9.976;2023-11-21T09:39:38;6.90;99.90
14749;DHT22;7466;53.574;9.976;2023-11-21T09:42:10;6.80;99.90
14749;DHT22;7466;53.574;9.976;2023-11-21T09:44:45;6.70;99.90
14749;DHT22;7466;53.574;9.976;2023-11-21T09:47:15;6.80;99.90
14749;DHT22;7466;53.574;9.976;2023-11-21T09:49:46;6.80;99.90
14749;DHT22;7466;53.574;9.976;2023-11-21T09:52:18;6.90;99.90
14749;DHT22;7466;53.574;9.976;2023-11-21T09:54:51;6.90;99.90
14749;DHT22;7466;53.574;9.976;2023-11-21T09:57:19;6.90;99.90
14749;DHT22;7466;53.574;9.976;2023-11-21T09:59:47;6.90;99.90
14749;DHT22;7466;53.574;9.976;2023-11-21T10:02:17;6.90;99.90
14749;DHT22;7466;53.574;9.976;2023-11-21T10:04:47;7.00;99.90
14749;DHT22;7466;53.574;9.976;2023-11-21T10:07:16;7.10;99.90
14749;DHT22;7466;53.574;9.976;2023-11-21T10:09:44;7.20;99.90
14749;DHT22;7466;53.574;9.976;2023-11-21T10:12:12;7.20;99.90
14749;DHT22;7466;53.574;9.976;2023-11-21T10:14:41;7.20;99.90
14749;DHT22;7466;53.574;9.976;2023-11-21T10:17:10;7.20;99.90
14749;DHT22;7466;53.574;9.976;2023-11-21T10:19:39;7.30;99.90
14749;DHT22;7466;53.574;9.976;2023-11-21T10:22:07;7.30;99.90
14749;DHT22;7466;53.574;9.976;2023-11-21T10:24:35;7.30;99.90
14749;DHT22;7466;53.574;9.976;2023-11-21T10:27:03;7.40;99.90
14749;DHT22;7466;53.574;9.976;2023-11-21T10:29:30;7.50;99.90
14749;DHT22;7466;53.574;9.976;2023-11-21T10:32:01;7.60;99.90
14749;DHT22;7466;53.574;9.976;2023-11-21T10:34:28;7.50;99.90
14749;DHT22;7466;53.574;9.976;2023-11-21T10:36:55;7.40;99.90
14749;DHT22;7466;53.574;9.976;2023-11-21T10:39:25;7.40;99.90
14749;DHT22;7466;53.574;9.976;2023-11-21T10:41:56;7.40;99.90
14749;DHT22;7466;53.574;9.976;2023-11-21T10:44:23;7.40;99.90
14749;DHT22;7466;53.574;9.976;2023-11-21T10:46:52;7.50;99.90
14749;DHT22;7466;53.574;9.976;2023-11-21T10:49:21;7.60;99.90
14749;DHT22;7466;53.574;9.976;2023-11-21T10:51:50;7.50;99.90
14749;DHT22;7466;53.574;9.976;2023-11-21T10:54:19;7.50;99.90
14749;DHT22;7466;53.574;9.976;2023-11-21T10:56:48;7.40;99.90
14749;DHT22;7466;53.574;9.976;2023-11-21T10:59:17;7.40;99.90
14749;DHT22;7466;53.574;9.976;2023-11-21T11:01:45;7.40;99.90
14749;DHT22;7466;53.574;9.976;2023-11-21T11:04:12;7.30;99.90
14749;DHT22;7466;53.574;9.976;2023-11-21T11:06:43;7.10;99.90
14749;DHT22;7466;53.574;9.976;2023-11-21T11:09:12;7.10;99.90
14749;DHT22;7466;53.574;9.976;2023-11-21T11:11:39;7.00;99.90
14749;DHT22;7466;53.574;9.976;2023-11-21T11:14:10;6.90;99.90
14749;DHT22;7466;53.574;9.976;2023-11-21T11:16:39;7.10;99.90
14749;DHT22;7466;53.574;9.976;2023-11-21T11:19:06;7.00;99.90
14749;DHT22;7466;53.574;9.976;2023-11-21T11:21:42;7.10;99.90
14749;DHT22;7466;53.574;9.976;2023-11-21T11:24:29;7.10;99.90
14749;DHT22;7466;53.574;9.976;2023-11-21T11:27:09;7.00;99.90
14749;DHT22;7466;53.574;9.976;2023-11-21T11:29:45;7.10;99.90
14749;DHT22;7466;53.574;9.976;2023-11-21T11:32:23;7.10;99.90
14749;DHT22;7466;53.574;9.976;2023-11-21T11:34:56;7.30;99.90
14749;DHT22;7466;53.574;9.976;2023-11-21T11:37:25;7.10;99.90
14749;DHT22;7466;53.574;9.976;2023-11-21T11:39:52;7.00;99.90
14749;DHT22;7466;53.574;9.976;2023-11-21T11:42:21;7.10;99.90
14749;DHT22;7466;53.574;9.976;2023-11-21T11:44:51;7.20;99.90
14749;DHT22;7466;53.574;9.976;2023-11-21T11:47:21;7.00;99.90
14749;DHT22;7466;53.574;9.976;2023-11-21T11:50:00;7.10;99.90
14749;DHT22;7466;53.574;9.976;2023-11-21T11:52:36;7.10;99.90
14749;DHT22;7466;53.574;9.976;2023-11-21T11:55:03;7.00;99.90
14749;DHT22;7466;53.574;9.976;2023-11-21T11:57:30;7.10;99.90
14749;DHT22;7466;53.574;9.976;2023-11-21T12:00:09;7.00;99.90
14749;DHT22;7466;53.574;9.976;2023-11-21T12:02:37;6.90;99.90
14749;DHT22;7466;53.574;9.976;2023-11-21T12:05:09;6.90;99.90
14749;DHT22;7466;53.574;9.976;2023-11-21T12:07:44;6.90;99.90
14749;DHT22;7466;53.574;9.976;2023-11-21T12:10:13;6.90;99.90
14749;DHT22;7466;53.574;9.976;2023-11-21T12:12:44;6.90;99.90
14749;DHT22;7466;53.574;9.976;2023-11-21T12:15:14;6.90;99.90
14749;DHT22;7466;53.574;9.976;2023-11-21T12:17:42;7.00;99.90
14749;DHT22;7466;53.574;9.976;2023-11-21T12:20:10;6.90;99.90
14749;DHT22;7466;53.574;9.976;2023-11-21T12:22:42;6.90;99.90
14749;DHT22;7466;53.574;9.976;2023-11-21T12:25:09;6.90;99.90
14749;DHT22;7466;53.574;9.976;2023-11-21T12:27:44;6.90;99.90
14749;DHT22;7466;53.574;9.976;2023-11-21T12:30:14;6.90;99.90
14749;DHT22;7466;53.574;9.976;2023-11-21T12:32:41;6.90;99.90
14749;DHT22;7466;53.574;9.976;2023-11-21T12:35:09;6.80;99.90
14749;DHT22;7466;53.574;9.976;2023-11-21T12:37:37;6.70;99.90
14749;DHT22;7466;53.574;9.976;2023-11-21T12:40:06;6.70;99.90
14749;DHT22;7466;53.574;9.976;2023-11-21T12:42:33;6.70;99.90
14749;DHT22;7466;53.574;9.976;2023-11-21T12:45:08;6.60;99.90
14749;DHT22;7466;53.574;9.976;2023-11-21T12:47:41;6.60;99.90
14749;DHT22;7466;53.574;9.976;2023-11-21T12:50:08;6.60;99.90
14749;DHT22;7466;53.574;9.976;2023-11-21T12:52:44;6.50;99.90
14749;DHT22;7466;53.574;9.976;2023-11-21T12:55:17;6.50;99.90
14749;DHT22;7466;53.574;9.976;2023-11-21T12:57:44;6.50;99.90
14749;DHT22;7466;53.574;9.976;2023-11-21T13:00:13;6.50;99.90
14749;DHT22;7466;53.574;9.976;2023-11-21T13:02:54;6.50;99.90
14749;DHT22;7466;53.574;9.976;2023-11-21T13:05:26;6.50;99.90
14749;DHT22;7466;53.574;9.976;2023-11-21T13:07:54;6.50;99.90
14749;DHT22;7466;53.574;9.976;2023-11-21T13:10:23;6.50;99.90
14749;DHT22;7466;53.574;9.976;2023-11-21T13:12:55;6.40;99.90
14749;DHT22;7466;53.574;9.976;2023-11-21T13:15:23;6.40;99.90
14749;DHT22;7466;53.574;9.976;2023-11-21T13:17:50;6.50;99.90
14749;DHT22;7466;53.574;9.976;2023-11-21T13:20:20;6.40;99.90
14749;DHT22;7466;53.574;9.976;2023-11-21T13:22:48;6.40;99.90
14749;DHT22;7466;53.574;9.976;2023-11-21T13:25:16;6.40;99.90
14749;DHT22;7466;53.574;9.976;2023-11-21T13:27:45;6.40;99.90
14749;DHT22;7466;53.574;9.976;2023-11-21T13:30:13;6.30;99.90
14749;DHT22;7466;53.574;9.976;2023-11-21T13:32:42;6.30;99.90
14749;DHT22;7466;53.574;9.976;2023-11-21T13:35:09;6.30;99.90
14749;DHT22;7466;53.574;9.976;2023-11-21T13:37:48;6.30;99.90
14749;DHT22;7466;53.574;9.976;2023-11-21T13:40:20;6.30;99.90
14749;DHT22;7466;53.574;9.976;2023-11-21T13:42:49;6.20;99.90
14749;DHT22;7466;53.574;9.976;2023-11-21T13:45:19;6.30;99.90
14749;DHT22;7466;53.574;9.976;2023-11-21T13:47:48;6.20;99.90
14749;DHT22;7466;53.574;9.976;2023-11-21T13:50:17;6.20;99.90
14749;DHT22;7466;53.574;9.976;2023-11-21T13:52:49;6.20;99.90
14749;DHT22;7466;53.574;9.976;2023-11-21T13:55:18;6.30;99.90
14749;DHT22;7466;53.574;9.976;2023-11-21T13:57:45;6.20;99.90
14749;DHT22;7466;53.574;9.976;2023-11-21T14:00:16;6.30;99.90
14749;DHT22;7466;53.574;9.976;2023-11-21T14:02:56;6.30;99.90
14749;DHT22;7466;53.574;9.976;2023-11-21T14:05:26;6.30;99.90
14749;DHT22;7466;53.574;9.976;2023-11-21T14:07:56;6.20;99.90
14749;DHT22;7466;53.574;9.976;2023-11-21T14:10:28;6.20;99.90
14749;DHT22;7466;53.574;9.976;2023-11-21T14:13:02;6.10;99.90
14749;DHT22;7466;53.574;9.976;2023-11-21T14:15:30;6.00;99.90
14749;DHT22;7466;53.574;9.976;2023-11-21T14:17:58;6.00;99.90
14749;DHT22;7466;53.574;9.976;2023-11-21T14:20:28;6.00;99.90
14749;DHT22;7466;53.574;9.976;2023-11-21T14:22:57;6.00;99.90
14749;DHT22;7466;53.574;9.976;2023-11-21T14:25:23;6.00;99.90
14749;DHT22;7466;53.574;9.976;2023-11-21T14:27:52;6.00;99.90
14749;DHT22;7466;53.574;9.976;2023-11-21T14:30:19;6.00;99.90
14749;DHT22;7466;53.574;9.976;2023-11-21T14:32:48;6.00;99.90
14749;DHT22;7466;53.574;9.976;2023-11-21T14:35:15;6.00;99.90
14749;DHT22;7466;53.574;9.976;2023-11-21T14:37:42;6.00;99.90
14749;DHT22;7466;53.574;9.976;2023-11-21T14:40:12;6.00;99.90
14749;DHT22;7466;53.574;9.976;2023-11-21T14:42:41;6.00;99.90
14749;DHT22;7466;53.574;9.976;2023-11-21T14:45:09;5.90;99.90
14749;DHT22;7466;53.574;9.976;2023-11-21T14:47:38;5.80;99.90
14749;DHT22;7466;53.574;9.976;2023-11-21T14:50:10;5.90;99.90
14749;DHT22;7466;53.574;9.976;2023-11-21T14:53:07;5.80;99.90
14749;DHT22;7466;53.574;9.976;2023-11-21T14:55:35;5.80;99.90
14749;DHT22;7466;53.574;9.976;2023-11-21T14:58:18;5.80;99.90
14749;DHT22;7466;53.574;9.976;2023-11-21T15:00:55;5.80;99.90
14749;DHT22;7466;53.574;9.976;2023-11-21T15:03:24;5.80;99.90
14749;DHT22;7466;53.574;9.976;2023-11-21T15:06:09;5.80;99.90
14749;DHT22;7466;53.574;9.976;2023-11-21T15:08:56;5.80;99.90
14749;DHT22;7466;53.574;9.976;2023-11-21T15:11:55;5.80;99.90
14749;DHT22;7466;53.574;9.976;2023-11-21T15:14:29;5.80;99.90
14749;DHT22;7466;53.574;9.976;2023-11-21T15:16:57;5.70;99.90
14749;DHT22;7466;53.574;9.976;2023-11-21T15:19:25;5.70;99.90
14749;DHT22;7466;53.574;9.976;2023-11-21T15:21:53;5.70;99.90
14749;DHT22;7466;53.574;9.976;2023-11-21T15:24:20;5.70;99.90
14749;DHT22;7466;53.574;9.976;2023-11-21T15:26:47;5.70;99.90
14749;DHT22;7466;53.574;9.976;2023-11-21T15:29:15;5.80;99.90
14749;DHT22;7466;53.574;9.976;2023-11-21T15:31:43;5.70;99.90
14749;DHT22;7466;53.574;9.976;2023-11-21T15:34:14;5.60;99.90
14749;DHT22;7466;53.574;9.976;2023-11-21T15:36:41;5.40;99.90
14749;DHT22;7466;53.574;9.976;2023-11-21T15:39:08;5.30;99.90
14749;DHT22;7466;53.574;9.976;2023-11-21T15:41:37;5.30;99.90
14749;DHT22;7466;53.574;9.976;2023-11-21T15:44:05;5.20;99.90
14749;DHT22;7466;53.574;9.976;2023-11-21T15:46:34;5.20;99.90
14749;DHT22;7466;53.574;9.976;2023-11-21T15:49:01;5.30;99.90
14749;DHT22;7466;53.574;9.976;2023-11-21T15:51:36;5.30;99.90
14749;DHT22;7466;53.574;9.976;2023-11-21T15:54:03;5.20;99.90
14749;DHT22;7466;53.574;9.976;2023-11-21T15:56:29;5.20;99.90
14749;DHT22;7466;53.574;9.976;2023-11-21T15:58:57;5.20;99.90
14749;DHT22;7466;53.574;9.976;2023-11-21T16:01:24;5.20;99.90
14749;DHT22;7466;53.574;9.976;2023-11-21T16:03:53;5.20;99.90
14749;DHT22;7466;53.574;9.976;2023-11-21T16:06:20;5.20;99.90
14749;DHT22;7466;53.574;9.976;2023-11-21T16:08:47;5.30;99.90
14749;DHT22;7466;53.574;9.976;2023-11-21T16:11:14;5.20;99.90
14749;DHT22;7466;53.574;9.976;2023-11-21T16:13:41;5.30;99.90